Terminal Aerodrome Forecast
Issued by NWS

Home | Current Version | Previous Version | Text Only | Print | Product List | Glossary On
Versions: 1 2 3 4 5 6 7 8 9 10 11 12 13 14 15 16 17
000
FTUS42 KTBW 281723
TAFLAL
TAF
KLAL 281723Z 2818/2918 24005KT P6SM VCTS SCT030CB BKN100
      TEMPO 2818/2822 VRB10G20KT 2SM TSRA
     FM290000 21004KT P6SM SCT040 BKN070
     FM291200 VRB03KT P6SM VCSH SCT015 BKN050
     FM291500 23007KT P6SM VCTS SCT030CB BKN100=

USA.gov is the U.S. government's official web portal to all federal, state and local government web resources and services.